createdAt,value
2022-11-19T00:01:29.085Z,68.30
2022-11-19T00:04:14.756Z,68.04
2022-11-19T00:07:00.719Z,68.04
2022-11-19T00:09:46.365Z,68.07
2022-11-19T00:12:50.434Z,68.29
2022-11-19T00:15:36.963Z,68.46
2022-11-19T00:18:23.400Z,68.06
2022-11-19T00:21:11.488Z,68.21
2022-11-19T00:23:57.475Z,68.33
2022-11-19T00:26:43.473Z,68.02
2022-11-19T00:29:29.363Z,68.06
2022-11-19T00:32:15.304Z,67.95
2022-11-19T00:35:01.224Z,67.98
2022-11-19T00:37:47.136Z,68.21
2022-11-19T00:40:32.915Z,68.27
2022-11-19T00:43:38.288Z,68.07
2022-11-19T00:46:27.991Z,68.14
2022-11-19T00:49:14.049Z,68.19
2022-11-19T00:52:00.763Z,68.10
2022-11-19T00:54:47.434Z,68.20
2022-11-19T00:57:33.318Z,68.28
2022-11-19T01:00:19.313Z,68.48
2022-11-19T01:03:06.001Z,68.49
2022-11-19T01:05:52.089Z,68.57
2022-11-19T01:08:38.194Z,68.58
2022-11-19T01:11:33.424Z,68.28
2022-11-19T01:14:19.550Z,68.67
2022-11-19T01:17:05.523Z,68.36
2022-11-19T01:19:51.311Z,68.46
2022-11-19T01:22:36.953Z,68.70
2022-11-19T01:25:22.890Z,68.58
2022-11-19T01:28:08.602Z,68.70
2022-11-19T01:30:54.413Z,68.62
2022-11-19T01:33:40.426Z,68.29
2022-11-19T01:36:28.459Z,68.33
2022-11-19T01:39:14.323Z,68.31
2022-11-19T01:42:00.193Z,68.52
2022-11-19T01:45:04.660Z,68.44
2022-11-19T01:47:51.947Z,68.30
2022-11-19T01:50:41.833Z,68.45
2022-11-19T01:53:30.105Z,68.49
2022-11-19T01:56:18.355Z,68.34
2022-11-19T01:59:09.442Z,68.48
2022-11-19T02:01:56.426Z,68.48
2022-11-19T02:04:42.975Z,68.72
2022-11-19T02:07:31.444Z,68.62
2022-11-19T02:10:17.935Z,68.70
2022-11-19T02:13:29.458Z,68.34
2022-11-19T02:16:32.953Z,68.50
2022-11-19T02:19:44.189Z,68.78
2022-11-19T02:22:36.376Z,68.52
2022-11-19T02:25:28.101Z,68.63
2022-11-19T02:28:53.717Z,68.71
2022-11-19T02:31:45.419Z,68.66
2022-11-19T02:34:37.634Z,68.79
2022-11-19T02:37:28.495Z,68.72
2022-11-19T02:40:20.437Z,68.71
2022-11-19T02:43:20.080Z,68.64
2022-11-19T02:46:09.890Z,68.57
2022-11-19T02:48:57.283Z,68.82
2022-11-19T02:51:43.733Z,68.60
2022-11-19T02:54:29.831Z,68.85
2022-11-19T02:57:15.696Z,68.90
2022-11-19T03:00:24.654Z,68.72
2022-11-19T03:03:33.718Z,68.82
2022-11-19T03:06:23.409Z,68.82
2022-11-19T03:09:09.330Z,68.58
2022-11-19T03:12:11.045Z,68.90
2022-11-19T03:15:56.134Z,68.84
2022-11-19T03:19:19.905Z,68.73
2022-11-19T03:22:16.028Z,68.80
2022-11-19T03:25:28.389Z,68.89
2022-11-19T03:28:17.991Z,68.90
2022-11-19T03:31:04.811Z,68.75
2022-11-19T03:33:52.664Z,68.95
2022-11-19T03:36:41.126Z,68.81
2022-11-19T03:39:27.675Z,68.77
2022-11-19T03:42:14.908Z,68.59
2022-11-19T03:45:05.358Z,68.96
2022-11-19T03:47:52.528Z,68.85
2022-11-19T03:50:47.690Z,69.01
2022-11-19T03:53:33.425Z,68.58
2022-11-19T03:56:22.376Z,68.54
2022-11-19T03:59:11.255Z,68.60
2022-11-19T04:02:00.840Z,68.55
2022-11-19T04:04:47.301Z,68.35
2022-11-19T04:07:33.475Z,68.72
2022-11-19T04:10:19.363Z,68.51
2022-11-19T04:13:05.232Z,68.89
2022-11-19T04:15:51.502Z,68.64
2022-11-19T04:18:37.234Z,68.73
2022-11-19T04:21:23.357Z,68.62
2022-11-19T04:24:09.702Z,68.75
2022-11-19T04:26:55.468Z,68.84
2022-11-19T04:29:41.363Z,68.68
2022-11-19T04:32:27.191Z,68.85
2022-11-19T04:35:14.200Z,68.75
2022-11-19T04:37:59.977Z,68.95
2022-11-19T04:40:47.503Z,68.79
2022-11-19T04:43:33.719Z,68.60
2022-11-19T04:46:19.530Z,68.67
2022-11-19T04:49:05.661Z,68.45
2022-11-19T04:51:51.697Z,68.64
2022-11-19T04:54:37.472Z,68.46
2022-11-19T04:57:23.411Z,68.57
2022-11-19T05:00:09.787Z,68.53
2022-11-19T05:02:55.875Z,68.68
2022-11-19T05:05:41.641Z,68.63
2022-11-19T05:08:27.338Z,68.75
2022-11-19T05:11:13.151Z,68.79
2022-11-19T05:13:59.113Z,69.12
2022-11-19T05:16:44.726Z,68.71
2022-11-19T05:19:30.673Z,69.00
2022-11-19T05:22:16.481Z,68.95
2022-11-19T05:25:02.490Z,68.68
2022-11-19T05:27:48.365Z,68.84
2022-11-19T05:30:34.251Z,68.71
2022-11-19T05:33:20.310Z,68.77
2022-11-19T05:36:06.917Z,68.75
2022-11-19T05:38:52.609Z,68.63
2022-11-19T05:41:38.289Z,68.62
2022-11-19T05:44:24.059Z,68.73
2022-11-19T05:47:09.729Z,68.87
2022-11-19T05:49:55.485Z,68.72
2022-11-19T05:52:41.272Z,68.63
2022-11-19T05:55:27.212Z,68.81
2022-11-19T05:58:13.996Z,68.86
2022-11-19T06:01:00.103Z,68.95
2022-11-19T06:03:45.725Z,68.79
2022-11-19T06:06:31.475Z,68.68
2022-11-19T06:09:17.753Z,68.72
2022-11-19T06:12:04.037Z,68.63
2022-11-19T06:14:49.938Z,68.79
2022-11-19T06:17:35.986Z,68.37
2022-11-19T06:20:22.218Z,68.46
2022-11-19T06:23:08.168Z,68.55
2022-11-19T06:25:54.700Z,68.71
2022-11-19T06:28:40.540Z,68.59
2022-11-19T06:31:27.021Z,68.47
2022-11-19T06:34:13.333Z,68.38
2022-11-19T06:36:59.123Z,68.45
2022-11-19T06:39:45.092Z,68.47
2022-11-19T06:42:36.637Z,68.41
2022-11-19T06:45:22.830Z,68.71
2022-11-19T06:48:08.691Z,68.74
2022-11-19T06:50:54.414Z,68.42
2022-11-19T06:53:40.169Z,68.53
2022-11-19T06:56:26.077Z,68.23
2022-11-19T06:59:12.147Z,68.20
2022-11-19T07:01:57.816Z,68.55
2022-11-19T07:04:43.696Z,68.52
2022-11-19T07:07:29.465Z,68.86
2022-11-19T07:10:15.648Z,68.08
2022-11-19T07:13:02.042Z,68.58
2022-11-19T07:15:47.971Z,68.24
2022-11-19T07:18:33.802Z,68.35
2022-11-19T07:21:19.848Z,68.21
2022-11-19T07:24:09.090Z,68.37
2022-11-19T07:26:55.802Z,68.26
2022-11-19T07:29:41.971Z,68.31
2022-11-19T07:32:27.626Z,68.11
2022-11-19T07:35:13.489Z,68.39
2022-11-19T07:37:59.562Z,67.90
2022-11-19T07:40:53.689Z,68.04
2022-11-19T07:43:39.276Z,68.19
2022-11-19T07:46:25.229Z,68.39
2022-11-19T07:49:11.673Z,68.19
2022-11-19T07:51:57.419Z,67.74
2022-11-19T07:54:43.177Z,67.92
2022-11-19T07:57:30.477Z,67.61
2022-11-19T08:00:16.653Z,67.67
2022-11-19T08:03:02.685Z,67.63
2022-11-19T08:05:48.687Z,67.67
2022-11-19T08:08:35.329Z,67.32
2022-11-19T08:11:21.015Z,67.48
2022-11-19T08:14:07.026Z,67.35
2022-11-19T08:17:11.731Z,67.22
2022-11-19T08:19:57.683Z,67.40
2022-11-19T08:22:43.492Z,67.21
2022-11-19T08:25:29.593Z,67.25
2022-11-19T08:28:16.044Z,67.12
2022-11-19T08:31:09.002Z,66.76
2022-11-19T08:33:55.428Z,67.08
2022-11-19T08:36:41.557Z,66.84
2022-11-19T08:39:27.367Z,66.54
2022-11-19T08:42:31.539Z,66.48
2022-11-19T08:45:20.809Z,66.37
2022-11-19T08:48:13.507Z,66.22
2022-11-19T08:51:03.923Z,66.41
2022-11-19T08:53:52.621Z,66.34
2022-11-19T08:56:38.833Z,66.09
2022-11-19T08:59:24.833Z,66.27
2022-11-19T09:02:11.219Z,65.98
2022-11-19T09:04:57.436Z,66.29
2022-11-19T09:07:43.372Z,66.34
2022-11-19T09:10:29.178Z,66.30
2022-11-19T09:13:14.997Z,66.21
2022-11-19T09:16:01.969Z,66.20
2022-11-19T09:18:48.251Z,65.99
2022-11-19T09:21:34.218Z,65.43
2022-11-19T09:24:20.969Z,65.46
2022-11-19T09:27:07.082Z,64.88
2022-11-19T09:29:52.799Z,64.84
2022-11-19T09:32:38.666Z,64.95
2022-11-19T09:35:25.274Z,65.10
2022-11-19T09:38:11.189Z,64.88
2022-11-19T09:40:57.875Z,64.58
2022-11-19T09:43:57.312Z,64.91
2022-11-19T09:47:07.579Z,64.56
2022-11-19T09:50:06.594Z,64.37
2022-11-19T09:53:03.085Z,64.55
2022-11-19T09:55:52.283Z,64.12
2022-11-19T09:58:41.816Z,63.92
2022-11-19T10:01:30.355Z,63.31
2022-11-19T10:04:21.598Z,62.36
2022-11-19T10:07:13.356Z,61.92
2022-11-19T10:10:23.380Z,62.10
2022-11-19T10:13:56.798Z,61.63
2022-11-19T10:16:55.185Z,61.95
2022-11-19T10:19:59.929Z,61.65
2022-11-19T10:23:04.579Z,61.50
2022-11-19T10:26:01.226Z,61.43
2022-11-19T10:28:57.699Z,61.18
2022-11-19T10:31:46.353Z,61.00
2022-11-19T10:34:34.989Z,60.77
2022-11-19T10:37:22.863Z,60.63
2022-11-19T10:40:13.729Z,60.71
2022-11-19T10:43:08.440Z,60.63
2022-11-19T10:46:00.517Z,60.67
2022-11-19T10:48:52.694Z,60.71
2022-11-19T10:51:40.761Z,60.74
2022-11-19T10:54:28.178Z,60.97
2022-11-19T10:57:17.749Z,60.80
2022-11-19T11:00:04.646Z,60.79
2022-11-19T11:02:56.354Z,61.21
2022-11-19T11:06:06.292Z,60.53
2022-11-19T11:08:54.712Z,59.95
2022-11-19T11:11:59.116Z,59.91
2022-11-19T11:14:54.943Z,59.87
2022-11-19T11:17:42.591Z,59.34
2022-11-19T11:20:29.253Z,59.45
2022-11-19T11:23:22.915Z,59.08
2022-11-19T11:26:10.938Z,58.77
2022-11-19T11:29:24.300Z,58.94
2022-11-19T11:32:30.904Z,58.74
2022-11-19T11:35:34.435Z,58.69
2022-11-19T11:38:22.481Z,58.53
2022-11-19T11:41:53.719Z,58.16
2022-11-19T11:44:23.019Z,58.38
2022-11-19T11:47:17.869Z,58.45
2022-11-19T11:50:07.916Z,58.32
2022-11-19T11:52:55.569Z,58.27
2022-11-19T11:55:41.513Z,58.65
2022-11-19T11:58:32.523Z,58.47
2022-11-19T12:01:18.490Z,58.43
2022-11-19T12:04:04.899Z,58.40
2022-11-19T12:07:17.104Z,57.99
2022-11-19T12:10:16.088Z,58.41
2022-11-19T12:13:41.179Z,58.42
2022-11-19T12:16:54.933Z,58.79
2022-11-19T12:19:52.919Z,59.18
2022-11-19T12:22:58.624Z,59.04
2022-11-19T12:25:50.226Z,59.16
2022-11-19T12:28:48.594Z,58.89
2022-11-19T12:31:53.417Z,58.69
2022-11-19T12:34:51.404Z,58.92
2022-11-19T12:38:17.165Z,58.99
2022-11-19T12:41:08.969Z,59.13
2022-11-19T12:44:02.496Z,59.40
2022-11-19T12:46:59.070Z,59.24
2022-11-19T12:50:15.479Z,59.27
2022-11-19T12:53:23.107Z,59.41
2022-11-19T12:56:27.485Z,59.13
2022-11-19T12:59:28.717Z,59.52
2022-11-19T13:02:24.750Z,59.32
2022-11-19T13:05:17.755Z,59.32
2022-11-19T13:08:13.209Z,59.65
2022-11-19T13:11:18.756Z,59.07
2022-11-19T13:14:26.148Z,59.03
2022-11-19T13:17:37.568Z,59.20
2022-11-19T13:20:23.595Z,59.34
2022-11-19T13:23:14.316Z,59.40
2022-11-19T13:26:07.376Z,59.77
2022-11-19T13:29:03.055Z,59.63
2022-11-19T13:31:55.612Z,60.00
2022-11-19T13:34:45.425Z,60.00
2022-11-19T13:37:56.866Z,59.67
2022-11-19T13:41:08.260Z,59.46
2022-11-19T13:44:17.559Z,59.70
2022-11-19T13:47:03.758Z,59.93
2022-11-19T13:49:57.591Z,60.03
2022-11-19T13:52:52.858Z,60.17
2022-11-19T13:55:41.241Z,60.09
2022-11-19T13:58:32.968Z,60.22
2022-11-19T14:01:31.712Z,60.42
2022-11-19T14:04:18.090Z,60.56
2022-11-19T14:07:30.679Z,60.51
2022-11-19T14:10:24.971Z,60.45
2022-11-19T14:13:13.985Z,60.81
2022-11-19T14:16:51.471Z,60.85
2022-11-19T14:20:10.547Z,61.01
2022-11-19T14:23:17.678Z,60.91
2022-11-19T14:26:21.762Z,60.88
2022-11-19T14:29:26.370Z,61.30
2022-11-19T14:32:12.718Z,61.19
2022-11-19T14:35:01.332Z,61.35
2022-11-19T14:37:50.927Z,61.25
2022-11-19T14:40:42.465Z,61.47
2022-11-19T14:44:08.696Z,61.33
2022-11-19T14:46:54.704Z,61.23
2022-11-19T14:49:40.964Z,61.36
2022-11-19T14:52:40.202Z,61.11
2022-11-19T14:55:32.565Z,61.36
2022-11-19T14:58:22.024Z,61.27
2022-11-19T15:01:10.948Z,61.08
2022-11-19T15:04:03.044Z,61.68
2022-11-19T15:06:49.416Z,61.57
2022-11-19T15:09:53.151Z,61.43
2022-11-19T15:13:02.547Z,61.62
2022-11-19T15:15:51.070Z,61.82
2022-11-19T15:18:41.571Z,61.65
2022-11-19T15:22:08.374Z,61.78
2022-11-19T15:25:21.622Z,61.82
2022-11-19T15:28:42.514Z,61.80
2022-11-19T15:31:40.092Z,62.42
2022-11-19T15:35:09.617Z,62.48
2022-11-19T15:38:06.773Z,62.29
2022-11-19T15:40:56.311Z,62.75
2022-11-19T15:43:49.244Z,62.66
2022-11-19T15:46:54.391Z,62.50
2022-11-19T15:49:40.427Z,62.92
2022-11-19T15:52:32.044Z,62.78
2022-11-19T15:55:26.725Z,62.68
2022-11-19T15:58:15.193Z,62.59
2022-11-19T16:01:01.002Z,62.60
2022-11-19T16:03:47.625Z,62.84
2022-11-19T16:06:33.901Z,63.24
2022-11-19T16:09:23.342Z,63.16
2022-11-19T16:12:38.095Z,63.24
2022-11-19T16:15:46.101Z,63.03
2022-11-19T16:18:32.340Z,63.30
2022-11-19T16:21:31.726Z,63.31
2022-11-19T16:24:38.071Z,63.30
2022-11-19T16:27:25.699Z,63.28
2022-11-19T16:30:25.308Z,63.31
2022-11-19T16:33:24.955Z,63.73
2022-11-19T16:36:13.393Z,63.90
2022-11-19T16:38:59.428Z,64.19
2022-11-19T16:42:04.993Z,63.30
2022-11-19T16:44:57.545Z,63.69
2022-11-19T16:47:52.617Z,64.17
2022-11-19T16:50:45.344Z,63.88
2022-11-19T16:53:53.951Z,64.01
2022-11-19T16:56:44.824Z,63.96
2022-11-19T16:59:31.683Z,64.25
2022-11-19T17:02:19.966Z,64.01
2022-11-19T17:05:09.198Z,64.22
2022-11-19T17:08:06.883Z,64.47
2022-11-19T17:11:33.779Z,64.25
2022-11-19T17:14:31.386Z,64.69
2022-11-19T17:17:44.020Z,64.80
2022-11-19T17:20:30.707Z,64.65
2022-11-19T17:23:19.925Z,64.69
2022-11-19T17:26:16.363Z,64.48
2022-11-19T17:29:11.340Z,64.33
2022-11-19T17:31:57.864Z,64.46
2022-11-19T17:34:47.077Z,64.73
2022-11-19T17:37:32.868Z,64.65
2022-11-19T17:40:18.731Z,64.78
2022-11-19T17:43:28.463Z,64.53
2022-11-19T17:46:14.483Z,64.82
2022-11-19T17:49:00.619Z,64.87
2022-11-19T17:51:46.836Z,64.75
2022-11-19T17:54:33.368Z,65.03
2022-11-19T17:57:19.665Z,64.85
2022-11-19T18:00:06.434Z,64.87
2022-11-19T18:02:52.435Z,64.63
2022-11-19T18:05:39.889Z,64.96
2022-11-19T18:08:26.271Z,64.83
2022-11-19T18:11:24.596Z,64.80
2022-11-19T18:14:12.641Z,65.17
2022-11-19T18:16:58.436Z,64.88
2022-11-19T18:19:44.224Z,65.07
2022-11-19T18:22:30.481Z,65.15
2022-11-19T18:25:18.890Z,65.12
2022-11-19T18:28:05.261Z,65.51
2022-11-19T18:30:51.434Z,65.38
2022-11-19T18:33:37.288Z,65.30
2022-11-19T18:36:24.437Z,65.44
2022-11-19T18:39:10.754Z,65.45
2022-11-19T18:41:56.405Z,65.79
2022-11-19T18:44:43.745Z,65.74
2022-11-19T18:47:29.702Z,65.96
2022-11-19T18:50:16.793Z,66.19
2022-11-19T18:53:03.156Z,66.27
2022-11-19T18:55:49.318Z,66.24
2022-11-19T18:58:35.284Z,66.03
2022-11-19T19:01:23.858Z,66.25
2022-11-19T19:04:14.196Z,65.74
2022-11-19T19:07:00.909Z,65.95
2022-11-19T19:09:47.241Z,66.21
2022-11-19T19:12:33.297Z,66.10
2022-11-19T19:15:19.330Z,66.15
2022-11-19T19:18:07.899Z,66.03
2022-11-19T19:20:53.921Z,66.60
2022-11-19T19:23:40.325Z,66.54
2022-11-19T19:26:26.332Z,66.68
2022-11-19T19:29:12.877Z,66.60
2022-11-19T19:31:58.729Z,66.39
2022-11-19T19:34:44.679Z,66.21
2022-11-19T19:37:30.523Z,66.41
2022-11-19T19:40:16.684Z,66.34
2022-11-19T19:43:06.211Z,66.50
2022-11-19T19:45:52.579Z,66.45
2022-11-19T19:48:38.341Z,66.63
2022-11-19T19:51:26.649Z,66.62
2022-11-19T19:54:13.040Z,66.54
2022-11-19T19:56:59.371Z,66.60
2022-11-19T19:59:45.408Z,66.44
2022-11-19T20:02:31.234Z,66.83
2022-11-19T20:05:16.998Z,66.70
2022-11-19T20:08:03.159Z,66.37
2022-11-19T20:10:49.394Z,66.50
2022-11-19T20:13:36.868Z,66.55
2022-11-19T20:16:26.824Z,66.60
2022-11-19T20:19:14.940Z,66.70
2022-11-19T20:22:00.881Z,66.61
2022-11-19T20:24:46.679Z,66.63
2022-11-19T20:27:32.607Z,66.69
2022-11-19T20:30:18.341Z,66.63
2022-11-19T20:33:04.479Z,66.90
2022-11-19T20:35:54.597Z,66.75
2022-11-19T20:38:41.818Z,67.00
2022-11-19T20:41:47.312Z,67.11
2022-11-19T20:44:33.235Z,66.97
2022-11-19T20:47:19.067Z,66.79
2022-11-19T20:50:05.384Z,66.81
2022-11-19T20:52:54.463Z,66.74
2022-11-19T20:55:53.257Z,66.65
2022-11-19T20:58:57.437Z,67.07
2022-11-19T21:01:43.227Z,66.91
2022-11-19T21:04:31.390Z,67.06
2022-11-19T21:07:17.927Z,67.14
2022-11-19T21:10:07.799Z,66.89
2022-11-19T21:13:03.326Z,67.06
2022-11-19T21:15:49.244Z,66.93
2022-11-19T21:18:37.052Z,66.81
2022-11-19T21:21:25.746Z,66.98
2022-11-19T21:24:11.926Z,67.01
2022-11-19T21:26:57.941Z,67.03
2022-11-19T21:29:43.662Z,66.86
2022-11-19T21:32:29.532Z,66.94
2022-11-19T21:35:15.400Z,66.94
2022-11-19T21:38:01.664Z,66.81
2022-11-19T21:40:49.514Z,66.95
2022-11-19T21:43:35.669Z,66.94
2022-11-19T21:46:21.402Z,66.84
2022-11-19T21:49:07.175Z,66.96
2022-11-19T21:51:53.324Z,66.99
2022-11-19T21:54:39.424Z,66.77
2022-11-19T21:57:26.120Z,66.87
2022-11-19T22:00:12.953Z,66.87
2022-11-19T22:02:59.065Z,66.79
2022-11-19T22:05:44.982Z,66.75
2022-11-19T22:08:35.472Z,66.79
2022-11-19T22:11:32.287Z,66.66
2022-11-19T22:14:18.810Z,66.71
2022-11-19T22:17:04.943Z,66.57
2022-11-19T22:19:52.114Z,66.76
2022-11-19T22:22:37.935Z,66.72
2022-11-19T22:25:23.882Z,66.86
2022-11-19T22:28:09.673Z,66.88
2022-11-19T22:30:55.445Z,66.98
2022-11-19T22:33:41.704Z,66.85
2022-11-19T22:36:31.255Z,66.71
2022-11-19T22:39:18.602Z,66.80
2022-11-19T22:42:05.124Z,66.99
2022-11-19T22:44:51.890Z,66.79
2022-11-19T22:47:37.707Z,66.93
2022-11-19T22:50:23.416Z,66.96
2022-11-19T22:53:09.679Z,67.06
2022-11-19T22:56:00.805Z,66.82
2022-11-19T22:58:47.273Z,67.41
2022-11-19T23:01:34.748Z,66.98
2022-11-19T23:04:20.543Z,67.16
2022-11-19T23:07:06.777Z,67.21
2022-11-19T23:09:52.834Z,67.30
2022-11-19T23:12:57.471Z,67.30
2022-11-19T23:15:43.460Z,67.24
2022-11-19T23:18:31.026Z,67.22
2022-11-19T23:21:20.253Z,67.04
2022-11-19T23:24:07.053Z,67.31
2022-11-19T23:26:53.234Z,67.06
2022-11-19T23:29:39.240Z,67.07
2022-11-19T23:32:24.919Z,67.10
2022-11-19T23:35:10.648Z,67.12
2022-11-19T23:37:56.749Z,67.40
2022-11-19T23:40:42.658Z,66.99
2022-11-19T23:43:29.215Z,67.40
2022-11-19T23:46:17.167Z,67.09
2022-11-19T23:49:04.264Z,67.41
2022-11-19T23:51:49.963Z,67.16
2022-11-19T23:54:35.581Z,67.23
2022-11-19T23:57:21.485Z,67.39
